Current Weather

Jubail

Jubail, Saudi Arabia (OEJB)

Report from: Sunday, November 27, 2022 11:00 AM +03
Current time: Sunday, November 27, 2022 11:20 AM +03

Nearby weather
Weather history
Weather forecast

Temperature28.0°C (82.4°F)
Heat index28.6°C (83.5°F)
Dew point16.0°C (60.8°F)
Winds Calm
Visibility6.2 mi. (10 km)
Clouds Few clouds 3,000 ft. (914 m)
Altimeter29.97 in.Hg (1015 mB)
Relative humidity48 %
Density altitude1,688 ft. (515 m)
Remarks Fully automated report
No significant changes expected in the next two hours
Flight conditions Visual Meteorological Conditions
Raw dataOEJB 270800Z AUTO 00000KT 9999 FEW030 28/16 Q1015 NOSIG
An error has occurred. This application may no longer respond until reloaded. Reload 🗙